Time;durP1;ratioP1;P1;durP2;ratioP2;P2;SDS_P1;SDS_P2;PMS_P1;PMS_P2;Temp;Humidity;BMP_temperature;BMP_pressure;BME280_temperature;BME280_humidity;BME280_pressure;Samples;Min_cycle;Max_cycle;Signal;HPM_P1;HPM_P2
2024/03/23 00:08:19;;;;;;;;;;;7.50;99.90;;;;;;21022304;28;19912;-78
2024/03/23 00:18:23;;;;;;;;;;;7.70;99.90;;;;;;21029859;28;19970;-78
2024/03/23 00:28:24;;;;;;;;;;;7.50;99.90;;;;;;21025057;28;20003;-78
2024/03/23 00:38:25;;;;;;;;;;;7.00;99.90;;;;;;21005796;28;19917;-78
2024/03/23 00:48:27;;;;;;;;;;;7.20;99.90;;;;;;21034399;28;19966;-78
2024/03/23 00:58:28;;;;;;;;;;;7.40;99.90;;;;;;21012428;28;20345;-78
2024/03/23 01:08:28;;;;;;;;;;;7.30;99.90;;;;;;21040927;28;19916;-78
2024/03/23 01:18:29;;;;;;;;;;;7.60;99.90;;;;;;21023645;28;19940;-79
2024/03/23 01:28:30;;;;;;;;;;;7.70;99.90;;;;;;21036699;28;19962;-78
2024/03/23 01:38:30;;;;;;;;;;;7.90;99.90;;;;;;21021975;28;19916;-78
2024/03/23 01:48:31;;;;;;;;;;;8.10;99.90;;;;;;21033914;28;19951;-78
2024/03/23 01:58:32;;;;;;;;;;;8.10;99.90;;;;;;21024875;28;19916;-78
2024/03/23 02:08:33;;;;;;;;;;;7.90;99.90;;;;;;21015394;28;20030;-78
2024/03/23 02:18:33;;;;;;;;;;;8.10;99.90;;;;;;21043926;28;19927;-78
2024/03/23 02:28:34;;;;;;;;;;;8.10;99.90;;;;;;21000488;28;20362;-79
2024/03/23 02:38:35;;;;;;;;;;;8.10;99.90;;;;;;21004711;28;19966;-78
2024/03/23 02:48:35;;;;;;;;;;;8.00;99.90;;;;;;21004613;28;19920;-78
2024/03/23 02:58:36;;;;;;;;;;;7.90;99.90;;;;;;21012603;28;19917;-78
2024/03/23 03:08:37;;;;;;;;;;;7.70;99.90;;;;;;21025544;28;19913;-78
2024/03/23 03:18:37;;;;;;;;;;;7.50;99.90;;;;;;21035874;28;19916;-78
2024/03/23 03:28:38;;;;;;;;;;;7.30;99.90;;;;;;21028414;28;20311;-78
2024/03/23 03:38:38;;;;;;;;;;;7.30;99.90;;;;;;20998675;28;20019;-78
2024/03/23 03:48:39;;;;;;;;;;;7.40;99.90;;;;;;21033769;28;20278;-78
2024/03/23 03:58:40;;;;;;;;;;;7.60;99.90;;;;;;21017993;28;19917;-78
2024/03/23 04:08:40;;;;;;;;;;;7.60;99.90;;;;;;21037400;28;19919;-78
2024/03/23 04:18:41;;;;;;;;;;;7.30;99.90;;;;;;21023166;28;19920;-77
2024/03/23 04:28:42;;;;;;;;;;;7.70;99.90;;;;;;21030443;28;19926;-79
2024/03/23 04:38:45;;;;;;;;;;;7.90;99.90;;;;;;21017047;28;19916;-78
2024/03/23 04:48:46;;;;;;;;;;;7.90;99.90;;;;;;21009664;28;19912;-77
2024/03/23 04:58:47;;;;;;;;;;;10.00;99.90;;;;;;21024975;28;19958;-79
2024/03/23 05:08:47;;;;;;;;;;;10.20;99.90;;;;;;21045590;28;19919;-79
2024/03/23 05:18:48;;;;;;;;;;;10.40;99.90;;;;;;21058277;28;20298;-78
2024/03/23 05:28:49;;;;;;;;;;;10.30;99.90;;;;;;21034275;28;19923;-79
2024/03/23 05:38:49;;;;;;;;;;;10.20;99.90;;;;;;21059559;28;19959;-79
2024/03/23 05:48:50;;;;;;;;;;;10.10;99.90;;;;;;21023091;28;20299;-78
2024/03/23 05:59:00;;;;;;;;;;;10.10;99.90;;;;;;21019812;28;19943;-79
2024/03/23 06:09:01;;;;;;;;;;;9.90;99.90;;;;;;21030582;28;20010;-79
2024/03/23 06:19:04;;;;;;;;;;;9.90;99.90;;;;;;21022801;28;19924;-79
2024/03/23 06:29:05;;;;;;;;;;;10.00;99.90;;;;;;21034969;28;20430;-79
2024/03/23 06:39:05;;;;;;;;;;;10.10;99.90;;;;;;21006837;28;19920;-79
2024/03/23 06:49:06;;;;;;;;;;;10.00;99.90;;;;;;21036858;28;19916;-79
2024/03/23 06:59:07;;;;;;;;;;;9.80;99.90;;;;;;21024962;28;20015;-78
2024/03/23 07:09:08;;;;;;;;;;;9.60;99.90;;;;;;21019171;28;19920;-79
2024/03/23 07:19:08;;;;;;;;;;;9.50;99.90;;;;;;21054106;28;19923;-78
2024/03/23 07:29:09;;;;;;;;;;;9.40;99.90;;;;;;21067262;28;19920;-78
2024/03/23 07:39:10;;;;;;;;;;;9.10;99.90;;;;;;21044492;28;19916;-78
2024/03/23 07:49:10;;;;;;;;;;;8.60;99.90;;;;;;21113899;28;19912;-77
2024/03/23 07:59:11;;;;;;;;;;;8.10;99.90;;;;;;21144915;28;19923;-79
2024/03/23 08:09:11;;;;;;;;;;;7.90;99.90;;;;;;21096127;28;19944;-77
2024/03/23 08:19:12;;;;;;;;;;;7.80;99.90;;;;;;21103945;28;19915;-78
2024/03/23 08:29:13;;;;;;;;;;;7.60;99.90;;;;;;21103429;28;19926;-80
2024/03/23 08:39:14;;;;;;;;;;;7.50;99.90;;;;;;21084786;28;20082;-79
2024/03/23 08:49:14;;;;;;;;;;;7.60;99.90;;;;;;21074555;28;19920;-80
2024/03/23 08:59:15;;;;;;;;;;;9.50;99.90;;;;;;21094483;28;19952;-79
2024/03/23 09:09:15;;;;;;;;;;;9.10;99.90;;;;;;21078881;28;19919;-78
2024/03/23 09:19:19;;;;;;;;;;;9.20;99.90;;;;;;21084589;28;19916;-78
2024/03/23 09:29:20;;;;;;;;;;;10.10;99.90;;;;;;21087708;28;20428;-79
2024/03/23 09:39:21;;;;;;;;;;;10.90;99.90;;;;;;21084136;28;19916;-78
2024/03/23 09:49:21;;;;;;;;;;;11.10;99.90;;;;;;21064513;28;19991;-78
2024/03/23 09:59:22;;;;;;;;;;;10.30;99.90;;;;;;21085619;28;20003;-78
2024/03/23 10:09:25;;;;;;;;;;;11.30;99.90;;;;;;21044598;28;19912;-78
2024/03/23 10:19:32;;;;;;;;;;;11.80;99.90;;;;;;21084210;28;20414;-78
2024/03/23 10:29:33;;;;;;;;;;;12.30;99.90;;;;;;21073676;28;19927;-78
2024/03/23 10:39:35;;;;;;;;;;;13.30;99.90;;;;;;21069007;28;20264;-77
2024/03/23 10:49:36;;;;;;;;;;;12.30;99.90;;;;;;21073538;28;19913;-78
2024/03/23 10:59:37;;;;;;;;;;;11.80;99.90;;;;;;21079650;28;19912;-78
2024/03/23 11:09:38;;;;;;;;;;;13.00;99.90;;;;;;21069231;28;20004;-77
2024/03/23 11:19:39;;;;;;;;;;;12.00;99.90;;;;;;21046181;28;19916;-75
2024/03/23 11:29:41;;;;;;;;;;;13.10;99.90;;;;;;21030530;28;19941;-76
2024/03/23 11:39:42;;;;;;;;;;;12.70;99.90;;;;;;21058521;28;19912;-77
2024/03/23 11:49:42;;;;;;;;;;;9.40;99.90;;;;;;21053063;28;20298;-75
2024/03/23 11:59:44;;;;;;;;;;;7.20;99.90;;;;;;21062417;28;19912;-77
2024/03/23 12:09:47;;;;;;;;;;;8.40;99.90;;;;;;21085507;28;19985;-77
2024/03/23 12:19:48;;;;;;;;;;;7.50;99.90;;;;;;21078346;28;19915;-75
2024/03/23 12:29:49;;;;;;;;;;;7.70;99.90;;;;;;21027036;28;19923;-76
2024/03/23 12:39:49;;;;;;;;;;;10.20;99.90;;;;;;21004429;28;20307;-76
2024/03/23 12:49:52;;;;;;;;;;;11.20;99.90;;;;;;21036672;28;19913;-81
2024/03/23 12:59:53;;;;;;;;;;;11.50;99.90;;;;;;21031102;28;19959;-78
2024/03/23 13:09:53;;;;;;;;;;;9.40;99.90;;;;;;21060581;28;19935;-78
2024/03/23 13:19:55;;;;;;;;;;;8.60;99.90;;;;;;21059799;28;19916;-78
2024/03/23 13:29:56;;;;;;;;;;;9.80;99.90;;;;;;21026095;28;19924;-77
2024/03/23 13:39:57;;;;;;;;;;;9.70;99.90;;;;;;21028081;28;19948;-79
2024/03/23 13:49:57;;;;;;;;;;;9.40;99.90;;;;;;20999892;28;19920;-79
2024/03/23 13:59:58;;;;;;;;;;;10.90;99.90;;;;;;21012800;28;20295;-78
2024/03/23 14:10:02;;;;;;;;;;;10.90;99.90;;;;;;20995600;28;19912;-79
2024/03/23 14:20:05;;;;;;;;;;;10.90;99.90;;;;;;21041769;28;19917;-78
2024/03/23 14:30:06;;;;;;;;;;;11.40;99.90;;;;;;21040229;28;20322;-79
2024/03/23 14:40:07;;;;;;;;;;;11.90;99.90;;;;;;21004907;28;21187;-78
2024/03/23 14:50:08;;;;;;;;;;;10.60;99.90;;;;;;21023316;28;19924;-77
2024/03/23 15:00:12;;;;;;;;;;;10.40;99.90;;;;;;21023153;28;19912;-80
2024/03/23 15:10:13;;;;;;;;;;;10.00;99.90;;;;;;21033560;28;19916;-80
2024/03/23 15:20:13;;;;;;;;;;;10.10;99.90;;;;;;21055577;28;19965;-78
2024/03/23 15:30:14;;;;;;;;;;;9.80;99.90;;;;;;21072398;28;19916;-78
2024/03/23 15:40:15;;;;;;;;;;;9.60;99.90;;;;;;21042082;28;19916;-78
2024/03/23 15:50:15;;;;;;;;;;;8.90;99.90;;;;;;21056627;28;19920;-78
2024/03/23 16:00:16;;;;;;;;;;;8.80;99.90;;;;;;21059619;28;19919;-78
2024/03/23 16:10:17;;;;;;;;;;;8.80;99.90;;;;;;21080041;28;19916;-79
2024/03/23 16:20:17;;;;;;;;;;;8.60;99.90;;;;;;21063185;28;19916;-77
2024/03/23 16:30:20;;;;;;;;;;;8.40;99.90;;;;;;21072136;28;19939;-80
2024/03/23 16:40:20;;;;;;;;;;;8.30;99.90;;;;;;21046276;28;19916;-77
2024/03/23 16:50:21;;;;;;;;;;;8.30;99.90;;;;;;21062595;28;19916;-76
2024/03/23 17:00:22;;;;;;;;;;;8.30;99.90;;;;;;21056344;28;19919;-78
2024/03/23 17:10:23;;;;;;;;;;;8.20;99.90;;;;;;21042668;28;20355;-79
2024/03/23 17:20:23;;;;;;;;;;;7.70;99.90;;;;;;21076918;28;19912;-77
2024/03/23 17:30:26;;;;;;;;;;;7.30;99.90;;;;;;21053795;28;19946;-78
2024/03/23 17:40:26;;;;;;;;;;;6.80;99.90;;;;;;21062484;28;19913;-78
2024/03/23 17:50:27;;;;;;;;;;;6.40;99.90;;;;;;21049072;28;19916;-78
2024/03/23 18:00:28;;;;;;;;;;;6.30;99.90;;;;;;21070324;28;20385;-78
2024/03/23 18:10:29;;;;;;;;;;;6.20;99.90;;;;;;21071329;28;19939;-77
2024/03/23 18:20:30;;;;;;;;;;;6.00;99.90;;;;;;21072673;28;19972;-78
2024/03/23 18:30:32;;;;;;;;;;;5.90;99.90;;;;;;21041056;28;21262;-78
2024/03/23 18:40:33;;;;;;;;;;;5.90;99.90;;;;;;21035295;28;20401;-78
2024/03/23 18:50:34;;;;;;;;;;;5.90;99.90;;;;;;21044756;28;19915;-77
2024/03/23 19:00:35;;;;;;;;;;;5.90;99.90;;;;;;21048629;28;19916;-78
2024/03/23 19:10:35;;;;;;;;;;;5.80;99.90;;;;;;21037647;28;19916;-78
2024/03/23 19:20:36;;;;;;;;;;;5.60;99.90;;;;;;21035047;28;19918;-76
2024/03/23 19:30:37;;;;;;;;;;;5.50;99.90;;;;;;21025610;28;19961;-78
2024/03/23 19:40:37;;;;;;;;;;;5.50;99.90;;;;;;21051455;28;19965;-78
2024/03/23 19:50:38;;;;;;;;;;;5.60;99.90;;;;;;21060547;28;20432;-77
2024/03/23 20:00:39;;;;;;;;;;;4.80;99.90;;;;;;21037193;28;19966;-77
2024/03/23 20:10:45;;;;;;;;;;;4.20;99.90;;;;;;21042779;28;19916;-78
2024/03/23 20:20:46;;;;;;;;;;;3.90;99.90;;;;;;21056471;28;20025;-78
2024/03/23 20:30:48;;;;;;;;;;;3.80;99.90;;;;;;21054038;28;19917;-78
2024/03/23 20:40:52;;;;;;;;;;;3.90;99.90;;;;;;21043468;28;20011;-77
2024/03/23 20:50:56;;;;;;;;;;;3.70;99.90;;;;;;21054698;28;19916;-78
2024/03/23 21:01:01;;;;;;;;;;;3.70;99.90;;;;;;21089227;28;19962;-78
2024/03/23 21:11:06;;;;;;;;;;;3.70;99.90;;;;;;21032650;28;20374;-78
2024/03/23 21:21:09;;;;;;;;;;;3.80;99.90;;;;;;21034812;28;19918;-77
2024/03/23 21:31:11;;;;;;;;;;;3.80;99.90;;;;;;20997486;28;20387;-77
2024/03/23 21:41:12;;;;;;;;;;;3.80;99.90;;;;;;21029088;28;19912;-78
2024/03/23 21:51:12;;;;;;;;;;;3.90;99.90;;;;;;21045441;28;19916;-78
2024/03/23 22:01:13;;;;;;;;;;;4.00;99.90;;;;;;21050131;28;19962;-77
2024/03/23 22:11:13;;;;;;;;;;;4.00;99.90;;;;;;21039643;28;19916;-77
2024/03/23 22:21:14;;;;;;;;;;;3.90;99.90;;;;;;21015917;28;19919;-78
2024/03/23 22:31:15;;;;;;;;;;;3.90;99.90;;;;;;21043934;28;19927;-78
2024/03/23 22:41:16;;;;;;;;;;;3.90;99.90;;;;;;21037290;28;19916;-78
2024/03/23 22:51:17;;;;;;;;;;;3.90;99.90;;;;;;21043720;28;19938;-78
2024/03/23 23:01:18;;;;;;;;;;;4.00;99.90;;;;;;21042976;28;19912;-78
2024/03/23 23:11:18;;;;;;;;;;;4.10;99.90;;;;;;21036370;28;19924;-78
2024/03/23 23:21:20;;;;;;;;;;;4.00;99.90;;;;;;21064556;28;20007;-78
2024/03/23 23:31:21;;;;;;;;;;;4.10;99.90;;;;;;21056510;28;19920;-78
2024/03/23 23:41:22;;;;;;;;;;;4.20;99.90;;;;;;21010652;28;19938;-78
2024/03/23 23:51:22;;;;;;;;;;;4.20;99.90;;;;;;21009787;28;19916;-78
